sensor_id;sensor_type;location;lat;lon;timestamp;temperature;humidity
40289;DHT22;28991;52.028;5.526;2022-08-05T00:00:15;25.40;58.80
40289;DHT22;28991;52.028;5.526;2022-08-05T00:02:40;25.40;58.70
40289;DHT22;28991;52.028;5.526;2022-08-05T00:05:06;25.50;58.80
40289;DHT22;28991;52.028;5.526;2022-08-05T00:07:32;25.40;58.80
40289;DHT22;28991;52.028;5.526;2022-08-05T00:09:58;25.40;58.80
40289;DHT22;28991;52.028;5.526;2022-08-05T00:12:23;25.40;58.80
40289;DHT22;28991;52.028;5.526;2022-08-05T00:14:49;25.50;58.80
40289;DHT22;28991;52.028;5.526;2022-08-05T00:17:15;25.70;59.00
40289;DHT22;28991;52.028;5.526;2022-08-05T00:19:40;25.40;58.70
40289;DHT22;28991;52.028;5.526;2022-08-05T00:22:06;25.40;59.30
40289;DHT22;28991;52.028;5.526;2022-08-05T00:24:31;25.40;58.70
40289;DHT22;28991;52.028;5.526;2022-08-05T00:26:58;25.40;58.70
40289;DHT22;28991;52.028;5.526;2022-08-05T00:29:24;25.40;58.70
40289;DHT22;28991;52.028;5.526;2022-08-05T00:31:50;25.40;58.70
40289;DHT22;28991;52.028;5.526;2022-08-05T00:34:15;25.40;58.70
40289;DHT22;28991;52.028;5.526;2022-08-05T00:36:41;25.40;58.70
40289;DHT22;28991;52.028;5.526;2022-08-05T00:39:07;25.40;58.70
40289;DHT22;28991;52.028;5.526;2022-08-05T00:41:34;25.40;58.70
40289;DHT22;28991;52.028;5.526;2022-08-05T00:44:00;25.60;58.90
40289;DHT22;28991;52.028;5.526;2022-08-05T00:46:26;25.40;58.70
40289;DHT22;28991;52.028;5.526;2022-08-05T00:48:52;25.40;58.70
40289;DHT22;28991;52.028;5.526;2022-08-05T00:51:19;25.40;58.70
40289;DHT22;28991;52.028;5.526;2022-08-05T00:53:45;25.40;58.70
40289;DHT22;28991;52.028;5.526;2022-08-05T00:56:11;25.40;58.70
40289;DHT22;28991;52.028;5.526;2022-08-05T00:58:37;25.40;58.70
40289;DHT22;28991;52.028;5.526;2022-08-05T01:01:03;25.50;58.80
40289;DHT22;28991;52.028;5.526;2022-08-05T01:03:29;25.40;58.70
40289;DHT22;28991;52.028;5.526;2022-08-05T01:05:55;25.40;58.70
40289;DHT22;28991;52.028;5.526;2022-08-05T01:08:21;25.40;58.70
40289;DHT22;28991;52.028;5.526;2022-08-05T01:10:59;25.40;58.70
40289;DHT22;28991;52.028;5.526;2022-08-05T01:13:46;25.40;58.70
40289;DHT22;28991;52.028;5.526;2022-08-05T01:16:19;25.40;58.70
40289;DHT22;28991;52.028;5.526;2022-08-05T01:18:46;25.40;58.70
40289;DHT22;28991;52.028;5.526;2022-08-05T01:27:23;25.40;58.70
40289;DHT22;28991;52.028;5.526;2022-08-05T01:29:53;25.40;58.70
40289;DHT22;28991;52.028;5.526;2022-08-05T01:32:22;25.40;58.70
40289;DHT22;28991;52.028;5.526;2022-08-05T01:35:01;25.40;58.70
40289;DHT22;28991;52.028;5.526;2022-08-05T01:40:00;25.40;58.70
40289;DHT22;28991;52.028;5.526;2022-08-05T01:42:28;25.60;58.80
40289;DHT22;28991;52.028;5.526;2022-08-05T01:44:56;25.70;58.90
40289;DHT22;28991;52.028;5.526;2022-08-05T01:47:23;25.40;58.70
40289;DHT22;28991;52.028;5.526;2022-08-05T01:49:51;25.40;58.70
40289;DHT22;28991;52.028;5.526;2022-08-05T01:52:19;25.30;58.60
40289;DHT22;28991;52.028;5.526;2022-08-05T01:54:51;25.40;58.60
40289;DHT22;28991;52.028;5.526;2022-08-05T01:57:23;25.30;58.60
40289;DHT22;28991;52.028;5.526;2022-08-05T01:59:50;25.40;58.70
40289;DHT22;28991;52.028;5.526;2022-08-05T02:02:18;25.40;58.60
40289;DHT22;28991;52.028;5.526;2022-08-05T02:04:45;25.40;58.70
40289;DHT22;28991;52.028;5.526;2022-08-05T02:07:12;25.40;58.60
40289;DHT22;28991;52.028;5.526;2022-08-05T02:09:38;25.30;58.60
40289;DHT22;28991;52.028;5.526;2022-08-05T02:14:48;25.30;58.60
40289;DHT22;28991;52.028;5.526;2022-08-05T02:17:26;25.40;58.60
40289;DHT22;28991;52.028;5.526;2022-08-05T02:19:59;25.40;58.60
40289;DHT22;28991;52.028;5.526;2022-08-05T02:22:36;25.40;58.60
40289;DHT22;28991;52.028;5.526;2022-08-05T02:25:18;25.40;58.60
40289;DHT22;28991;52.028;5.526;2022-08-05T02:27:47;25.30;58.60
40289;DHT22;28991;52.028;5.526;2022-08-05T02:30:15;25.40;58.60
40289;DHT22;28991;52.028;5.526;2022-08-05T02:32:42;25.70;58.80
40289;DHT22;28991;52.028;5.526;2022-08-05T02:35:16;25.40;58.60
40289;DHT22;28991;52.028;5.526;2022-08-05T02:37:44;25.40;58.60
40289;DHT22;28991;52.028;5.526;2022-08-05T02:40:11;25.40;58.60
40289;DHT22;28991;52.028;5.526;2022-08-05T02:42:38;25.40;58.60
40289;DHT22;28991;52.028;5.526;2022-08-05T02:45:05;25.30;58.60
40289;DHT22;28991;52.028;5.526;2022-08-05T02:47:33;25.40;58.60
40289;DHT22;28991;52.028;5.526;2022-08-05T02:50:01;25.60;58.70
40289;DHT22;28991;52.028;5.526;2022-08-05T02:52:27;25.30;58.60
40289;DHT22;28991;52.028;5.526;2022-08-05T02:54:53;25.40;58.60
40289;DHT22;28991;52.028;5.526;2022-08-05T02:57:21;25.30;58.50
40289;DHT22;28991;52.028;5.526;2022-08-05T02:59:49;25.40;58.60
40289;DHT22;28991;52.028;5.526;2022-08-05T03:02:19;25.30;58.50
40289;DHT22;28991;52.028;5.526;2022-08-05T03:04:48;25.30;58.60
40289;DHT22;28991;52.028;5.526;2022-08-05T03:07:14;25.30;59.10
40289;DHT22;28991;52.028;5.526;2022-08-05T03:09:41;25.30;58.50
40289;DHT22;28991;52.028;5.526;2022-08-05T03:12:08;25.40;58.60
40289;DHT22;28991;52.028;5.526;2022-08-05T03:14:34;25.30;58.60
40289;DHT22;28991;52.028;5.526;2022-08-05T03:17:00;25.30;58.50
40289;DHT22;28991;52.028;5.526;2022-08-05T03:19:25;25.30;58.50
40289;DHT22;28991;52.028;5.526;2022-08-05T03:21:51;25.30;58.50
40289;DHT22;28991;52.028;5.526;2022-08-05T03:24:20;25.30;58.50
40289;DHT22;28991;52.028;5.526;2022-08-05T03:26:46;25.30;58.50
40289;DHT22;28991;52.028;5.526;2022-08-05T03:29:12;25.80;58.80
40289;DHT22;28991;52.028;5.526;2022-08-05T03:31:37;25.30;58.50
40289;DHT22;28991;52.028;5.526;2022-08-05T03:34:03;25.30;58.50
40289;DHT22;28991;52.028;5.526;2022-08-05T03:36:30;25.30;58.50
40289;DHT22;28991;52.028;5.526;2022-08-05T03:38:56;25.40;58.60
40289;DHT22;28991;52.028;5.526;2022-08-05T03:41:22;25.50;58.60
40289;DHT22;28991;52.028;5.526;2022-08-05T03:43:47;25.30;58.50
40289;DHT22;28991;52.028;5.526;2022-08-05T03:46:13;25.30;58.50
40289;DHT22;28991;52.028;5.526;2022-08-05T03:48:38;25.30;58.50
40289;DHT22;28991;52.028;5.526;2022-08-05T03:51:20;25.50;58.70
40289;DHT22;28991;52.028;5.526;2022-08-05T03:56:53;25.30;58.50
40289;DHT22;28991;52.028;5.526;2022-08-05T03:59:19;25.40;58.50
40289;DHT22;28991;52.028;5.526;2022-08-05T04:01:47;25.30;58.50
40289;DHT22;28991;52.028;5.526;2022-08-05T04:04:14;25.30;58.50
40289;DHT22;28991;52.028;5.526;2022-08-05T04:06:40;25.20;58.40
40289;DHT22;28991;52.028;5.526;2022-08-05T04:09:07;25.30;58.50
40289;DHT22;28991;52.028;5.526;2022-08-05T04:11:34;25.30;58.50
40289;DHT22;28991;52.028;5.526;2022-08-05T04:14:01;25.30;58.50
40289;DHT22;28991;52.028;5.526;2022-08-05T04:16:27;25.30;58.50
40289;DHT22;28991;52.028;5.526;2022-08-05T04:18:53;25.00;58.30
40289;DHT22;28991;52.028;5.526;2022-08-05T04:21:19;25.50;58.60
40289;DHT22;28991;52.028;5.526;2022-08-05T04:23:44;25.30;58.50
40289;DHT22;28991;52.028;5.526;2022-08-05T04:26:12;25.30;58.50
40289;DHT22;28991;52.028;5.526;2022-08-05T04:28:37;25.30;58.50
40289;DHT22;28991;52.028;5.526;2022-08-05T04:31:03;25.30;59.00
40289;DHT22;28991;52.028;5.526;2022-08-05T04:33:28;25.40;58.50
40289;DHT22;28991;52.028;5.526;2022-08-05T04:35:54;25.30;58.50
40289;DHT22;28991;52.028;5.526;2022-08-05T04:38:20;25.30;58.50
40289;DHT22;28991;52.028;5.526;2022-08-05T04:40:45;25.30;58.50
40289;DHT22;28991;52.028;5.526;2022-08-05T04:43:11;25.30;58.50
40289;DHT22;28991;52.028;5.526;2022-08-05T04:45:36;25.30;58.50
40289;DHT22;28991;52.028;5.526;2022-08-05T04:48:10;25.30;58.50
40289;DHT22;28991;52.028;5.526;2022-08-05T04:50:44;25.30;58.40
40289;DHT22;28991;52.028;5.526;2022-08-05T04:53:11;25.30;58.40
40289;DHT22;28991;52.028;5.526;2022-08-05T04:55:38;25.30;58.40
40289;DHT22;28991;52.028;5.526;2022-08-05T04:58:05;25.30;58.40
40289;DHT22;28991;52.028;5.526;2022-08-05T05:00:35;25.30;58.40
40289;DHT22;28991;52.028;5.526;2022-08-05T05:03:02;25.30;58.40
40289;DHT22;28991;52.028;5.526;2022-08-05T05:05:28;25.30;58.40
40289;DHT22;28991;52.028;5.526;2022-08-05T05:08:06;25.30;58.40
40289;DHT22;28991;52.028;5.526;2022-08-05T05:10:41;25.30;58.40
40289;DHT22;28991;52.028;5.526;2022-08-05T05:13:14;25.30;58.40
40289;DHT22;28991;52.028;5.526;2022-08-05T05:15:41;25.30;58.40
40289;DHT22;28991;52.028;5.526;2022-08-05T05:18:08;25.50;58.60
40289;DHT22;28991;52.028;5.526;2022-08-05T05:20:36;25.30;58.40
40289;DHT22;28991;52.028;5.526;2022-08-05T05:23:02;25.30;58.40
40289;DHT22;28991;52.028;5.526;2022-08-05T05:25:31;25.30;58.40
40289;DHT22;28991;52.028;5.526;2022-08-05T05:27:56;25.30;58.40
40289;DHT22;28991;52.028;5.526;2022-08-05T05:30:23;25.20;58.40
40289;DHT22;28991;52.028;5.526;2022-08-05T05:32:48;25.30;58.40
40289;DHT22;28991;52.028;5.526;2022-08-05T05:35:14;25.60;58.60
40289;DHT22;28991;52.028;5.526;2022-08-05T05:37:53;25.30;58.40
40289;DHT22;28991;52.028;5.526;2022-08-05T05:40:21;25.30;58.40
40289;DHT22;28991;52.028;5.526;2022-08-05T05:42:47;25.60;58.60
40289;DHT22;28991;52.028;5.526;2022-08-05T05:45:13;25.30;58.40
40289;DHT22;28991;52.028;5.526;2022-08-05T05:47:39;25.30;58.40
40289;DHT22;28991;52.028;5.526;2022-08-05T05:50:10;25.30;58.40
40289;DHT22;28991;52.028;5.526;2022-08-05T05:52:36;25.30;58.40
40289;DHT22;28991;52.028;5.526;2022-08-05T05:55:03;25.40;58.40
40289;DHT22;28991;52.028;5.526;2022-08-05T05:57:29;25.30;58.40
40289;DHT22;28991;52.028;5.526;2022-08-05T05:59:54;25.30;58.40
40289;DHT22;28991;52.028;5.526;2022-08-05T06:02:20;25.30;58.40
40289;DHT22;28991;52.028;5.526;2022-08-05T06:04:45;25.30;58.30
40289;DHT22;28991;52.028;5.526;2022-08-05T06:07:11;25.30;58.40
40289;DHT22;28991;52.028;5.526;2022-08-05T06:09:36;25.30;58.30
40289;DHT22;28991;52.028;5.526;2022-08-05T06:12:02;25.30;58.30
40289;DHT22;28991;52.028;5.526;2022-08-05T06:14:31;25.30;58.30
40289;DHT22;28991;52.028;5.526;2022-08-05T06:16:58;25.30;58.30
40289;DHT22;28991;52.028;5.526;2022-08-05T06:19:24;25.30;58.30
40289;DHT22;28991;52.028;5.526;2022-08-05T06:21:50;25.20;58.30
40289;DHT22;28991;52.028;5.526;2022-08-05T06:24:15;25.20;58.30
40289;DHT22;28991;52.028;5.526;2022-08-05T06:26:41;25.90;58.80
40289;DHT22;28991;52.028;5.526;2022-08-05T06:29:07;25.30;58.30
40289;DHT22;28991;52.028;5.526;2022-08-05T06:31:32;25.30;58.40
40289;DHT22;28991;52.028;5.526;2022-08-05T06:33:58;25.30;58.30
40289;DHT22;28991;52.028;5.526;2022-08-05T06:36:23;25.30;58.30
40289;DHT22;28991;52.028;5.526;2022-08-05T06:38:49;25.30;58.30
40289;DHT22;28991;52.028;5.526;2022-08-05T06:41:19;25.20;58.20
40289;DHT22;28991;52.028;5.526;2022-08-05T06:43:44;25.30;58.30
40289;DHT22;28991;52.028;5.526;2022-08-05T06:46:10;25.30;58.30
40289;DHT22;28991;52.028;5.526;2022-08-05T06:48:35;25.30;58.30
40289;DHT22;28991;52.028;5.526;2022-08-05T06:51:03;25.30;58.30
40289;DHT22;28991;52.028;5.526;2022-08-05T06:53:28;25.30;58.30
40289;DHT22;28991;52.028;5.526;2022-08-05T06:55:57;25.30;58.30
40289;DHT22;28991;52.028;5.526;2022-08-05T06:58:23;25.30;58.30
40289;DHT22;28991;52.028;5.526;2022-08-05T07:00:50;25.40;58.30
40289;DHT22;28991;52.028;5.526;2022-08-05T07:03:15;25.50;58.40
40289;DHT22;28991;52.028;5.526;2022-08-05T07:05:41;25.40;58.40
40289;DHT22;28991;52.028;5.526;2022-08-05T07:08:07;25.30;58.30
40289;DHT22;28991;52.028;5.526;2022-08-05T07:10:32;25.40;58.30
40289;DHT22;28991;52.028;5.526;2022-08-05T07:12:58;25.30;58.30
40289;DHT22;28991;52.028;5.526;2022-08-05T07:15:42;25.50;58.40
40289;DHT22;28991;52.028;5.526;2022-08-05T07:18:26;25.30;58.30
40289;DHT22;28991;52.028;5.526;2022-08-05T07:20:52;25.30;58.30
40289;DHT22;28991;52.028;5.526;2022-08-05T07:23:17;25.30;58.30
40289;DHT22;28991;52.028;5.526;2022-08-05T07:25:43;25.20;58.20
40289;DHT22;28991;52.028;5.526;2022-08-05T07:28:09;25.30;58.30
40289;DHT22;28991;52.028;5.526;2022-08-05T07:30:36;25.20;58.20
40289;DHT22;28991;52.028;5.526;2022-08-05T07:33:03;25.30;58.20
40289;DHT22;28991;52.028;5.526;2022-08-05T07:35:29;25.30;58.30
40289;DHT22;28991;52.028;5.526;2022-08-05T07:37:54;25.30;58.30
40289;DHT22;28991;52.028;5.526;2022-08-05T07:40:20;25.30;58.20
40289;DHT22;28991;52.028;5.526;2022-08-05T07:42:46;25.30;58.20
40289;DHT22;28991;52.028;5.526;2022-08-05T07:45:12;25.30;58.20
40289;DHT22;28991;52.028;5.526;2022-08-05T07:47:38;25.30;58.20
40289;DHT22;28991;52.028;5.526;2022-08-05T07:50:04;25.30;58.20
40289;DHT22;28991;52.028;5.526;2022-08-05T07:52:30;25.30;58.20
40289;DHT22;28991;52.028;5.526;2022-08-05T07:54:56;25.20;58.10
40289;DHT22;28991;52.028;5.526;2022-08-05T07:57:21;25.90;58.60
40289;DHT22;28991;52.028;5.526;2022-08-05T07:59:48;25.60;58.40
40289;DHT22;28991;52.028;5.526;2022-08-05T08:02:13;25.30;58.20
40289;DHT22;28991;52.028;5.526;2022-08-05T08:04:39;25.30;58.20
40289;DHT22;28991;52.028;5.526;2022-08-05T08:07:05;25.30;58.20
40289;DHT22;28991;52.028;5.526;2022-08-05T08:09:30;25.30;58.20
40289;DHT22;28991;52.028;5.526;2022-08-05T08:11:56;25.30;58.20
40289;DHT22;28991;52.028;5.526;2022-08-05T08:14:21;25.30;58.20
40289;DHT22;28991;52.028;5.526;2022-08-05T08:16:47;25.20;58.10
40289;DHT22;28991;52.028;5.526;2022-08-05T08:19:12;25.30;58.20
40289;DHT22;28991;52.028;5.526;2022-08-05T08:21:38;25.30;58.20
40289;DHT22;28991;52.028;5.526;2022-08-05T08:24:04;25.20;58.10
40289;DHT22;28991;52.028;5.526;2022-08-05T08:26:30;25.30;58.20
40289;DHT22;28991;52.028;5.526;2022-08-05T08:28:58;25.30;58.10
40289;DHT22;28991;52.028;5.526;2022-08-05T08:31:24;25.30;58.20
40289;DHT22;28991;52.028;5.526;2022-08-05T08:33:49;25.30;58.10
40289;DHT22;28991;52.028;5.526;2022-08-05T08:36:15;25.30;58.10
40289;DHT22;28991;52.028;5.526;2022-08-05T08:38:40;25.30;58.10
40289;DHT22;28991;52.028;5.526;2022-08-05T08:41:06;25.30;58.10
40289;DHT22;28991;52.028;5.526;2022-08-05T08:43:35;25.60;58.30
40289;DHT22;28991;52.028;5.526;2022-08-05T08:46:02;25.30;58.10
40289;DHT22;28991;52.028;5.526;2022-08-05T08:48:30;25.30;58.10
40289;DHT22;28991;52.028;5.526;2022-08-05T08:50:56;25.30;58.10
40289;DHT22;28991;52.028;5.526;2022-08-05T08:53:24;25.30;58.10
40289;DHT22;28991;52.028;5.526;2022-08-05T08:55:51;25.50;58.20
40289;DHT22;28991;52.028;5.526;2022-08-05T08:58:17;25.30;58.00
40289;DHT22;28991;52.028;5.526;2022-08-05T09:00:43;25.30;58.00
40289;DHT22;28991;52.028;5.526;2022-08-05T09:03:09;25.30;58.00
40289;DHT22;28991;52.028;5.526;2022-08-05T09:05:38;25.30;58.00
40289;DHT22;28991;52.028;5.526;2022-08-05T09:08:04;25.40;58.10
40289;DHT22;28991;52.028;5.526;2022-08-05T09:10:29;25.30;58.00
40289;DHT22;28991;52.028;5.526;2022-08-05T09:12:55;25.50;58.10
40289;DHT22;28991;52.028;5.526;2022-08-05T09:15:21;25.40;58.10
40289;DHT22;28991;52.028;5.526;2022-08-05T09:17:47;25.30;58.00
40289;DHT22;28991;52.028;5.526;2022-08-05T09:20:13;25.40;58.00
40289;DHT22;28991;52.028;5.526;2022-08-05T09:25:26;25.30;57.90
40289;DHT22;28991;52.028;5.526;2022-08-05T09:27:52;25.40;58.00
40289;DHT22;28991;52.028;5.526;2022-08-05T09:30:17;25.30;57.90
40289;DHT22;28991;52.028;5.526;2022-08-05T09:32:43;25.30;57.90
40289;DHT22;28991;52.028;5.526;2022-08-05T09:35:13;25.30;57.90
40289;DHT22;28991;52.028;5.526;2022-08-05T09:37:50;25.40;58.00
40289;DHT22;28991;52.028;5.526;2022-08-05T09:40:36;25.30;57.90
40289;DHT22;28991;52.028;5.526;2022-08-05T09:43:04;25.30;57.90
40289;DHT22;28991;52.028;5.526;2022-08-05T09:45:39;25.40;58.00
40289;DHT22;28991;52.028;5.526;2022-08-05T09:48:18;25.40;58.00
40289;DHT22;28991;52.028;5.526;2022-08-05T09:50:48;25.40;58.00
40289;DHT22;28991;52.028;5.526;2022-08-05T09:53:15;25.40;57.90
40289;DHT22;28991;52.028;5.526;2022-08-05T09:55:40;25.30;57.80
40289;DHT22;28991;52.028;5.526;2022-08-05T09:58:13;25.30;57.80
40289;DHT22;28991;52.028;5.526;2022-08-05T10:00:50;25.20;57.80
40289;DHT22;28991;52.028;5.526;2022-08-05T10:03:16;25.40;57.90
40289;DHT22;28991;52.028;5.526;2022-08-05T10:05:43;25.40;57.90
40289;DHT22;28991;52.028;5.526;2022-08-05T10:08:08;25.30;57.80
40289;DHT22;28991;52.028;5.526;2022-08-05T10:13:08;25.30;57.80
40289;DHT22;28991;52.028;5.526;2022-08-05T10:15:38;25.40;57.80
40289;DHT22;28991;52.028;5.526;2022-08-05T10:18:19;25.40;57.80
40289;DHT22;28991;52.028;5.526;2022-08-05T10:20:52;25.40;57.80
40289;DHT22;28991;52.028;5.526;2022-08-05T10:23:24;25.40;57.80
40289;DHT22;28991;52.028;5.526;2022-08-05T10:25:50;25.40;57.80
40289;DHT22;28991;52.028;5.526;2022-08-05T10:28:16;25.40;57.80
40289;DHT22;28991;52.028;5.526;2022-08-05T10:30:43;25.30;57.70
40289;DHT22;28991;52.028;5.526;2022-08-05T10:33:08;25.40;57.80
40289;DHT22;28991;52.028;5.526;2022-08-05T10:35:35;25.30;57.70
40289;DHT22;28991;52.028;5.526;2022-08-05T10:38:02;25.40;57.80
40289;DHT22;28991;52.028;5.526;2022-08-05T10:41:08;25.10;57.60
40289;DHT22;28991;52.028;5.526;2022-08-05T10:43:57;25.70;58.00
40289;DHT22;28991;52.028;5.526;2022-08-05T10:46:23;25.40;57.80
40289;DHT22;28991;52.028;5.526;2022-08-05T10:49:06;25.30;57.70
40289;DHT22;28991;52.028;5.526;2022-08-05T10:51:42;25.40;57.70
40289;DHT22;28991;52.028;5.526;2022-08-05T10:54:08;25.30;57.70
40289;DHT22;28991;52.028;5.526;2022-08-05T10:56:53;25.40;57.80
40289;DHT22;28991;52.028;5.526;2022-08-05T10:59:27;25.40;57.70
40289;DHT22;28991;52.028;5.526;2022-08-05T11:02:07;25.50;57.80
40289;DHT22;28991;52.028;5.526;2022-08-05T11:07:09;25.30;57.60
40289;DHT22;28991;52.028;5.526;2022-08-05T11:12:04;25.30;57.60
40289;DHT22;28991;52.028;5.526;2022-08-05T11:14:32;25.40;57.70
40289;DHT22;28991;52.028;5.526;2022-08-05T11:19:48;25.40;57.70
40289;DHT22;28991;52.028;5.526;2022-08-05T11:22:36;25.60;57.80
40289;DHT22;28991;52.028;5.526;2022-08-05T11:25:37;25.40;57.60
40289;DHT22;28991;52.028;5.526;2022-08-05T11:35:58;25.40;57.60
40289;DHT22;28991;52.028;5.526;2022-08-05T11:41:22;25.40;57.60
40289;DHT22;28991;52.028;5.526;2022-08-05T11:43:58;25.40;57.60
40289;DHT22;28991;52.028;5.526;2022-08-05T11:46:26;25.40;57.60
40289;DHT22;28991;52.028;5.526;2022-08-05T11:48:56;25.30;58.00
40289;DHT22;28991;52.028;5.526;2022-08-05T11:51:22;25.40;57.60
40289;DHT22;28991;52.028;5.526;2022-08-05T11:53:49;25.40;57.60
40289;DHT22;28991;52.028;5.526;2022-08-05T11:56:15;25.40;57.50
40289;DHT22;28991;52.028;5.526;2022-08-05T11:58:42;25.80;57.80
40289;DHT22;28991;52.028;5.526;2022-08-05T12:01:19;25.10;57.30
40289;DHT22;28991;52.028;5.526;2022-08-05T12:03:49;25.40;57.50
40289;DHT22;28991;52.028;5.526;2022-08-05T12:06:19;25.40;57.50
40289;DHT22;28991;52.028;5.526;2022-08-05T12:08:48;25.30;57.50
40289;DHT22;28991;52.028;5.526;2022-08-05T12:11:18;25.50;57.60
40289;DHT22;28991;52.028;5.526;2022-08-05T12:13:54;25.40;57.50
40289;DHT22;28991;52.028;5.526;2022-08-05T12:16:20;25.40;57.50
40289;DHT22;28991;52.028;5.526;2022-08-05T12:18:46;25.40;57.70
40289;DHT22;28991;52.028;5.526;2022-08-05T12:21:24;25.80;57.80
40289;DHT22;28991;52.028;5.526;2022-08-05T12:26:29;25.40;57.50
40289;DHT22;28991;52.028;5.526;2022-08-05T12:28:54;25.40;57.50
40289;DHT22;28991;52.028;5.526;2022-08-05T12:31:20;25.40;57.50
40289;DHT22;28991;52.028;5.526;2022-08-05T12:33:45;25.40;57.50
40289;DHT22;28991;52.028;5.526;2022-08-05T12:36:11;25.40;57.50
40289;DHT22;28991;52.028;5.526;2022-08-05T12:38:37;26.00;57.90
40289;DHT22;28991;52.028;5.526;2022-08-05T12:41:07;25.40;57.50
40289;DHT22;28991;52.028;5.526;2022-08-05T12:43:33;25.40;57.50
40289;DHT22;28991;52.028;5.526;2022-08-05T12:45:59;25.40;57.40
40289;DHT22;28991;52.028;5.526;2022-08-05T12:48:25;25.40;57.40
40289;DHT22;28991;52.028;5.526;2022-08-05T12:51:13;25.40;57.40
40289;DHT22;28991;52.028;5.526;2022-08-05T12:53:43;25.40;57.40
40289;DHT22;28991;52.028;5.526;2022-08-05T12:56:22;25.30;57.30
40289;DHT22;28991;52.028;5.526;2022-08-05T13:01:33;25.40;57.40
40289;DHT22;28991;52.028;5.526;2022-08-05T13:04:02;25.60;57.50
40289;DHT22;28991;52.028;5.526;2022-08-05T13:06:28;25.40;57.40
40289;DHT22;28991;52.028;5.526;2022-08-05T13:08:53;25.40;57.30
40289;DHT22;28991;52.028;5.526;2022-08-05T13:11:26;25.20;57.20
40289;DHT22;28991;52.028;5.526;2022-08-05T13:13:52;25.40;57.30
40289;DHT22;28991;52.028;5.526;2022-08-05T13:16:23;25.40;57.30
40289;DHT22;28991;52.028;5.526;2022-08-05T13:18:53;25.40;57.30
40289;DHT22;28991;52.028;5.526;2022-08-05T13:21:18;25.40;57.30
40289;DHT22;28991;52.028;5.526;2022-08-05T13:23:44;25.40;57.30
40289;DHT22;28991;52.028;5.526;2022-08-05T13:26:09;25.40;57.30
40289;DHT22;28991;52.028;5.526;2022-08-05T13:28:35;25.40;57.30
40289;DHT22;28991;52.028;5.526;2022-08-05T13:31:00;25.40;57.30
40289;DHT22;28991;52.028;5.526;2022-08-05T13:33:26;25.20;57.10
40289;DHT22;28991;52.028;5.526;2022-08-05T13:35:51;25.40;57.20
40289;DHT22;28991;52.028;5.526;2022-08-05T13:38:18;25.40;57.20
40289;DHT22;28991;52.028;5.526;2022-08-05T13:40:44;25.40;57.20
40289;DHT22;28991;52.028;5.526;2022-08-05T13:43:10;25.40;57.20
40289;DHT22;28991;52.028;5.526;2022-08-05T13:45:36;25.50;57.20
40289;DHT22;28991;52.028;5.526;2022-08-05T13:48:02;25.40;57.10
40289;DHT22;28991;52.028;5.526;2022-08-05T13:50:27;25.40;57.10
40289;DHT22;28991;52.028;5.526;2022-08-05T13:52:53;25.90;57.40
40289;DHT22;28991;52.028;5.526;2022-08-05T13:55:18;25.40;57.10
40289;DHT22;28991;52.028;5.526;2022-08-05T13:57:44;25.40;57.10
40289;DHT22;28991;52.028;5.526;2022-08-05T14:00:10;25.40;57.00
40289;DHT22;28991;52.028;5.526;2022-08-05T14:02:35;25.40;57.00
40289;DHT22;28991;52.028;5.526;2022-08-05T14:05:01;25.40;57.00
40289;DHT22;28991;52.028;5.526;2022-08-05T14:07:37;25.40;57.00
40289;DHT22;28991;52.028;5.526;2022-08-05T14:10:05;25.40;57.00
40289;DHT22;28991;52.028;5.526;2022-08-05T14:12:31;25.40;57.00
40289;DHT22;28991;52.028;5.526;2022-08-05T14:14:57;25.40;56.90
40289;DHT22;28991;52.028;5.526;2022-08-05T14:17:22;25.40;57.00
40289;DHT22;28991;52.028;5.526;2022-08-05T14:19:51;25.50;57.00
40289;DHT22;28991;52.028;5.526;2022-08-05T14:22:17;25.40;56.90
40289;DHT22;28991;52.028;5.526;2022-08-05T14:24:42;25.40;56.90
40289;DHT22;28991;52.028;5.526;2022-08-05T14:27:08;25.40;56.90
40289;DHT22;28991;52.028;5.526;2022-08-05T14:29:33;25.40;56.80
40289;DHT22;28991;52.028;5.526;2022-08-05T14:31:59;25.40;56.90
40289;DHT22;28991;52.028;5.526;2022-08-05T14:34:25;25.50;56.90
40289;DHT22;28991;52.028;5.526;2022-08-05T14:36:50;25.40;56.80
40289;DHT22;28991;52.028;5.526;2022-08-05T14:39:16;25.40;56.80
40289;DHT22;28991;52.028;5.526;2022-08-05T14:41:41;25.30;56.70
40289;DHT22;28991;52.028;5.526;2022-08-05T14:44:07;25.40;56.80
40289;DHT22;28991;52.028;5.526;2022-08-05T14:46:32;25.40;56.80
40289;DHT22;28991;52.028;5.526;2022-08-05T14:49:00;25.40;56.70
40289;DHT22;28991;52.028;5.526;2022-08-05T14:51:26;25.40;56.70
40289;DHT22;28991;52.028;5.526;2022-08-05T14:53:52;25.40;56.70
40289;DHT22;28991;52.028;5.526;2022-08-05T14:56:17;25.60;56.90
40289;DHT22;28991;52.028;5.526;2022-08-05T14:58:43;25.30;56.70
40289;DHT22;28991;52.028;5.526;2022-08-05T15:01:09;25.50;56.80
40289;DHT22;28991;52.028;5.526;2022-08-05T15:03:34;25.40;56.70
40289;DHT22;28991;52.028;5.526;2022-08-05T15:06:01;25.40;56.70
40289;DHT22;28991;52.028;5.526;2022-08-05T15:08:27;25.40;56.60
40289;DHT22;28991;52.028;5.526;2022-08-05T15:10:52;25.70;56.90
40289;DHT22;28991;52.028;5.526;2022-08-05T15:13:18;25.40;56.60
40289;DHT22;28991;52.028;5.526;2022-08-05T15:15:43;25.40;56.60
40289;DHT22;28991;52.028;5.526;2022-08-05T15:18:09;25.40;56.60
40289;DHT22;28991;52.028;5.526;2022-08-05T15:20:35;25.40;56.60
40289;DHT22;28991;52.028;5.526;2022-08-05T15:23:09;25.50;56.60
40289;DHT22;28991;52.028;5.526;2022-08-05T15:25:36;25.50;56.60
40289;DHT22;28991;52.028;5.526;2022-08-05T15:28:02;25.50;56.60
40289;DHT22;28991;52.028;5.526;2022-08-05T15:30:27;25.50;56.60
40289;DHT22;28991;52.028;5.526;2022-08-05T15:32:56;25.60;56.70
40289;DHT22;28991;52.028;5.526;2022-08-05T15:35:22;25.40;56.60
40289;DHT22;28991;52.028;5.526;2022-08-05T15:37:48;25.40;56.50
40289;DHT22;28991;52.028;5.526;2022-08-05T15:40:14;25.40;56.50
40289;DHT22;28991;52.028;5.526;2022-08-05T15:42:39;26.10;57.00
40289;DHT22;28991;52.028;5.526;2022-08-05T15:45:05;25.50;56.60
40289;DHT22;28991;52.028;5.526;2022-08-05T15:47:31;25.50;56.60
40289;DHT22;28991;52.028;5.526;2022-08-05T15:49:56;25.50;56.60
40289;DHT22;28991;52.028;5.526;2022-08-05T15:52:23;25.50;56.60
40289;DHT22;28991;52.028;5.526;2022-08-05T15:54:50;25.50;56.60
40289;DHT22;28991;52.028;5.526;2022-08-05T15:57:17;25.50;56.60
40289;DHT22;28991;52.028;5.526;2022-08-05T15:59:43;25.50;56.60
40289;DHT22;28991;52.028;5.526;2022-08-05T16:02:08;25.60;56.60
40289;DHT22;28991;52.028;5.526;2022-08-05T16:04:34;25.70;56.70
40289;DHT22;28991;52.028;5.526;2022-08-05T16:07:02;25.50;56.50
40289;DHT22;28991;52.028;5.526;2022-08-05T16:09:31;25.50;56.50
40289;DHT22;28991;52.028;5.526;2022-08-05T16:11:56;25.30;56.40
40289;DHT22;28991;52.028;5.526;2022-08-05T16:14:22;25.50;56.50
40289;DHT22;28991;52.028;5.526;2022-08-05T16:16:48;25.50;56.50